Time;durP1;ratioP1;P1;durP2;ratioP2;P2;SDS_P1;SDS_P2;PMS_P1;PMS_P2;Temp;Humidity;BMP_temperature;BMP_pressure;BME280_temperature;BME280_humidity;BME280_pressure;Samples;Min_cycle;Max_cycle;Signal;HPM_P1;HPM_P2
2022/04/03 00:00:49;;;;;;;6.38;1.45;;;0.60;99.90;;;;;;5129704;27;20107;-79
2022/04/03 00:03:14;;;;;;;3.10;1.35;;;0.60;99.90;;;;;;5112612;27;20475;-79
2022/04/03 00:05:43;;;;;;;3.53;1.80;;;0.60;99.90;;;;;;5129800;27;20043;-79
2022/04/03 00:08:10;;;;;;;4.57;1.48;;;0.60;99.90;;;;;;5095706;27;20120;-79
2022/04/03 00:10:36;;;;;;;5.38;1.50;;;0.60;99.90;;;;;;5130626;27;20046;-79
2022/04/03 00:13:03;;;;;;;3.47;1.30;;;1.60;99.90;;;;;;5130162;27;20043;-79
2022/04/03 00:15:29;;;;;;;7.85;1.73;;;0.50;99.90;;;;;;5130729;27;20486;-79
2022/04/03 00:17:55;;;;;;;2.75;1.50;;;1.90;99.90;;;;;;5111100;27;20062;-79
2022/04/03 00:20:20;;;;;;;4.07;2.00;;;0.40;99.90;;;;;;5130496;27;20039;-79
2022/04/03 00:22:49;;;;;;;3.00;1.55;;;0.50;99.90;;;;;;5129729;27;20049;-79
2022/04/03 00:25:18;;;;;;;4.85;1.77;;;0.50;99.90;;;;;;5130580;27;20039;-79
2022/04/03 00:27:47;;;;;;;6.38;2.00;;;0.50;99.90;;;;;;5111709;27;20046;-79
2022/04/03 00:30:13;;;;;;;4.88;1.40;;;0.40;99.90;;;;;;5094093;27;20078;-79
2022/04/03 00:32:39;;;;;;;3.30;1.70;;;0.50;99.90;;;;;;5130239;27;20090;-79
2022/04/03 00:35:05;;;;;;;4.15;2.13;;;0.50;99.90;;;;;;5129265;27;20047;-79
2022/04/03 00:37:32;;;;;;;7.88;2.45;;;0.50;99.90;;;;;;5130911;27;20058;-79
2022/04/03 00:39:57;;;;;;;11.80;2.20;;;0.50;99.90;;;;;;5129357;27;20074;-78
2022/04/03 00:42:24;;;;;;;5.15;2.33;;;0.50;99.90;;;;;;5130150;27;20094;-79
2022/04/03 00:44:50;;;;;;;5.13;2.03;;;0.40;99.90;;;;;;5111163;27;20050;-79
2022/04/03 00:47:18;;;;;;;5.82;1.83;;;0.40;99.90;;;;;;5129663;27;20043;-79
2022/04/03 00:49:46;;;;;;;5.60;1.48;;;0.30;99.90;;;;;;5111936;27;20394;-79
2022/04/03 00:52:12;;;;;;;6.00;1.85;;;0.30;99.90;;;;;;5128793;27;20043;-79
2022/04/03 00:54:38;;;;;;;6.13;2.00;;;0.30;99.90;;;;;;5078472;27;20039;-79
2022/04/03 00:57:07;;;;;;;2.63;1.45;;;1.50;99.90;;;;;;5128810;27;20387;-80
2022/04/03 00:59:36;;;;;;;2.92;1.17;;;1.70;99.90;;;;;;5129908;27;20039;-79
2022/04/03 01:02:03;;;;;;;5.03;1.67;;;0.10;99.90;;;;;;5110893;27;20479;-78
2022/04/03 01:04:29;;;;;;;3.13;1.23;;;0.10;99.90;;;;;;5110078;27;20133;-79
2022/04/03 01:06:56;;;;;;;4.32;1.60;;;0.10;99.90;;;;;;5129671;27;20055;-79
2022/04/03 01:09:22;;;;;;;1.58;1.13;;;0.00;99.90;;;;;;5110073;27;20047;-79
2022/04/03 01:11:48;;;;;;;2.28;1.15;;;1.00;99.90;;;;;;5129685;27;20088;-79
2022/04/03 01:14:15;;;;;;;3.03;1.55;;;1.40;99.90;;;;;;5128719;27;20039;-79
2022/04/03 01:16:40;;;;;;;4.32;1.33;;;-0.10;99.90;;;;;;5129441;27;20043;-78
2022/04/03 01:19:06;;;;;;;2.17;1.13;;;-0.10;99.90;;;;;;5110841;27;20046;-79
2022/04/03 01:21:33;;;;;;;2.63;1.23;;;-0.20;99.90;;;;;;5110086;27;20479;-78
2022/04/03 01:23:59;;;;;;;3.03;1.02;;;-0.20;99.90;;;;;;5129632;27;20043;-79
2022/04/03 01:26:24;;;;;;;2.70;1.30;;;-0.20;99.90;;;;;;5109685;27;20054;-79
2022/04/03 01:28:53;;;;;;;3.40;1.38;;;-0.10;99.90;;;;;;5093991;27;20575;-78
2022/04/03 01:31:19;;;;;;;1.88;1.08;;;-0.20;99.90;;;;;;5092312;27;20616;-79
2022/04/03 01:33:45;;;;;;;4.10;1.45;;;-0.20;99.90;;;;;;5128317;27;20059;-79
2022/04/03 01:36:11;;;;;;;3.65;1.35;;;-0.10;99.90;;;;;;5128865;27;20046;-79
2022/04/03 01:38:36;;;;;;;7.22;1.50;;;-0.10;99.90;;;;;;5110037;27;20046;-78
2022/04/03 01:41:02;;;;;;;1.42;1.00;;;0.00;99.90;;;;;;5129325;27;20039;-78
2022/04/03 01:43:28;;;;;;;1.85;1.02;;;0.00;99.90;;;;;;5075856;27;20419;-78
2022/04/03 01:45:54;;;;;;;4.20;1.45;;;0.00;99.90;;;;;;5110444;27;20077;-78
2022/04/03 01:48:20;;;;;;;2.58;1.27;;;1.60;99.90;;;;;;5109785;27;20039;-78
2022/04/03 01:50:46;;;;;;;3.80;1.23;;;0.20;99.90;;;;;;5076349;27;20106;-79
2022/04/03 01:53:12;;;;;;;3.22;1.80;;;0.20;99.90;;;;;;5089276;28;20560;-79
2022/04/03 01:55:40;;;;;;;3.70;1.20;;;1.50;99.90;;;;;;5107388;28;20482;-78
2022/04/03 01:58:08;;;;;;;3.05;1.45;;;0.40;99.90;;;;;;5108227;28;20130;-78
2022/04/03 02:00:34;;;;;;;4.63;1.42;;;-0.50;99.90;;;;;;5105443;28;20138;-79
2022/04/03 02:03:00;;;;;;;4.78;1.60;;;0.60;99.90;;;;;;5106871;28;20048;-80
2022/04/03 02:05:25;;;;;;;3.90;1.30;;;0.60;99.90;;;;;;5088513;28;20047;-79
2022/04/03 02:07:51;;;;;;;3.53;1.30;;;0.70;99.90;;;;;;5106476;28;20058;-79
2022/04/03 02:10:17;;;;;;;3.15;1.33;;;0.80;99.90;;;;;;5107303;28;20047;-80
2022/04/03 02:12:43;;;;;;;3.53;1.42;;;2.20;99.90;;;;;;5107702;28;20090;-80
2022/04/03 02:15:11;;;;;;;3.10;1.27;;;1.00;99.90;;;;;;5106423;28;20479;-78
2022/04/03 02:17:40;;;;;;;1.95;1.10;;;1.10;99.90;;;;;;5106861;28;20090;-78
2022/04/03 02:20:09;;;;;;;2.70;0.82;;;1.20;99.90;;;;;;5108222;28;20130;-79
2022/04/03 02:22:35;;;;;;;2.08;1.00;;;1.30;99.90;;;;;;5106503;28;20503;-78
2022/04/03 02:25:03;;;;;;;1.60;1.00;;;1.60;99.90;;;;;;5107533;28;20577;-79
2022/04/03 02:27:30;;;;;;;3.92;0.95;;;2.40;99.90;;;;;;5105818;28;20354;-79
2022/04/03 02:29:56;;;;;;;1.58;0.98;;;2.50;99.90;;;;;;5106900;28;20096;-78
2022/04/03 02:32:21;;;;;;;5.35;0.93;;;1.60;99.90;;;;;;5107899;28;20047;-79
2022/04/03 02:34:47;;;;;;;1.52;0.82;;;1.60;99.90;;;;;;5106334;28;20444;-79
2022/04/03 02:37:14;;;;;;;7.00;1.25;;;3.10;99.90;;;;;;5108033;28;20028;-78
2022/04/03 02:39:41;;;;;;;2.08;0.95;;;1.70;99.90;;;;;;5088072;28;20050;-78
2022/04/03 02:42:07;;;;;;;6.03;1.10;;;2.50;99.90;;;;;;5107349;28;20046;-78
2022/04/03 02:44:33;;;;;;;1.63;1.05;;;1.80;99.90;;;;;;5106755;28;20048;-78
2022/04/03 02:46:59;;;;;;;4.20;0.98;;;1.80;99.90;;;;;;5106590;28;20047;-78
2022/04/03 02:49:24;;;;;;;2.05;0.70;;;1.90;99.90;;;;;;5107807;28;20031;-78
2022/04/03 02:51:50;;;;;;;1.75;0.90;;;2.00;99.90;;;;;;5104519;28;20051;-78
2022/04/03 02:54:16;;;;;;;1.33;0.65;;;1.80;99.90;;;;;;5089606;28;20044;-78
2022/04/03 02:56:41;;;;;;;1.50;0.60;;;1.80;99.90;;;;;;5105084;28;20059;-79
2022/04/03 02:59:07;;;;;;;1.70;0.60;;;1.70;99.90;;;;;;5107449;28;20407;-79
2022/04/03 03:01:33;;;;;;;0.50;0.40;;;1.70;99.90;;;;;;5106825;28;20372;-80
2022/04/03 03:03:59;;;;;;;0.50;0.40;;;1.70;99.90;;;;;;5106591;28;20048;-81
2022/04/03 03:06:24;;;;;;;1.25;0.40;;;3.20;99.90;;;;;;5105564;28;20055;-81
2022/04/03 03:08:50;;;;;;;1.00;0.40;;;1.60;99.90;;;;;;5106050;28;20070;-81
2022/04/03 03:11:16;;;;;;;4.93;0.40;;;2.60;99.90;;;;;;5105931;28;20089;-81
2022/04/03 03:13:42;;;;;;;0.90;0.30;;;1.50;99.90;;;;;;5106185;28;20092;-81
2022/04/03 03:16:07;;;;;;;4.38;0.32;;;2.40;99.90;;;;;;5107299;28;20480;-81
2022/04/03 03:18:34;;;;;;;5.65;0.50;;;2.60;99.90;;;;;;5071048;28;20415;-81
2022/04/03 03:20:59;;;;;;;3.13;0.40;;;2.30;99.90;;;;;;5106598;28;20739;-80
2022/04/03 03:23:25;;;;;;;2.08;0.60;;;1.60;99.90;;;;;;5107091;28;20035;-81
2022/04/03 03:25:51;;;;;;;1.02;0.43;;;1.60;99.90;;;;;;5106115;28;20451;-81
2022/04/03 03:28:16;;;;;;;0.77;0.22;;;1.60;99.90;;;;;;5107478;28;20043;-81
2022/04/03 03:30:43;;;;;;;1.08;0.45;;;1.60;99.90;;;;;;5104801;28;20043;-81
2022/04/03 03:33:09;;;;;;;0.80;0.30;;;1.60;99.90;;;;;;5107512;28;20039;-81
2022/04/03 03:35:34;;;;;;;3.28;0.68;;;1.60;99.90;;;;;;5106636;28;20043;-82
2022/04/03 03:38:01;;;;;;;0.98;0.50;;;1.60;99.90;;;;;;5105502;28;20079;-81
2022/04/03 03:40:27;;;;;;;1.77;0.80;;;2.70;99.90;;;;;;5107309;28;20048;-81
2022/04/03 03:42:53;;;;;;;0.93;0.60;;;1.70;99.90;;;;;;5106262;28;20088;-81
2022/04/03 03:45:18;;;;;;;2.05;0.73;;;1.50;99.90;;;;;;5107128;28;20527;-81
2022/04/03 03:47:46;;;;;;;1.75;0.40;;;2.70;99.90;;;;;;5106262;28;20050;-81
2022/04/03 03:50:13;;;;;;;3.70;0.70;;;1.50;99.90;;;;;;5107044;28;20047;-82
2022/04/03 03:52:39;;;;;;;4.50;0.88;;;1.50;99.90;;;;;;5087725;28;20051;-82
2022/04/03 03:55:06;;;;;;;1.17;0.50;;;1.50;99.90;;;;;;5089250;28;20054;-82
2022/04/03 03:57:31;;;;;;;0.70;0.40;;;1.40;99.90;;;;;;5109225;28;20039;-82
2022/04/03 03:59:57;;;;;;;5.10;1.23;;;1.40;99.90;;;;;;5108162;28;20036;-82
2022/04/03 04:02:23;;;;;;;1.23;0.55;;;1.40;99.90;;;;;;5092225;28;20142;-82
2022/04/03 04:04:49;;;;;;;2.08;0.70;;;2.80;99.90;;;;;;5109827;28;20089;-82
2022/04/03 04:07:14;;;;;;;1.38;0.75;;;1.30;99.90;;;;;;5108975;28;20504;-82
2022/04/03 04:09:41;;;;;;;1.15;0.68;;;1.30;99.90;;;;;;5108411;28;20121;-82
2022/04/03 04:12:09;;;;;;;3.47;1.02;;;1.30;99.90;;;;;;5092163;28;20039;-81
2022/04/03 04:14:35;;;;;;;4.05;0.77;;;1.30;99.90;;;;;;5110591;28;20059;-82
2022/04/03 04:17:01;;;;;;;3.60;1.05;;;2.50;99.90;;;;;;5108341;28;20654;-81
2022/04/03 04:19:28;;;;;;;2.60;0.65;;;1.40;99.90;;;;;;5109213;28;20044;-82
2022/04/03 04:21:54;;;;;;;5.35;1.05;;;1.40;99.90;;;;;;5091746;28;20047;-82
2022/04/03 04:24:20;;;;;;;4.53;0.90;;;1.30;99.90;;;;;;5109513;28;20547;-82
2022/04/03 04:26:45;;;;;;;2.58;1.27;;;1.40;99.90;;;;;;5107999;28;20047;-81
2022/04/03 04:29:11;;;;;;;0.88;0.60;;;1.30;99.90;;;;;;5109140;28;20101;-81
2022/04/03 04:31:37;;;;;;;1.88;0.77;;;1.30;99.90;;;;;;5058107;28;20637;-81
2022/04/03 04:34:03;;;;;;;0.70;0.50;;;1.20;99.90;;;;;;5108057;28;20050;-81
2022/04/03 04:36:29;;;;;;;2.78;0.98;;;1.30;99.90;;;;;;5108907;28;20059;-81
2022/04/03 04:38:56;;;;;;;7.82;1.25;;;1.90;99.90;;;;;;5107629;28;20052;-81
2022/04/03 04:41:21;;;;;;;2.95;0.70;;;1.20;99.90;;;;;;5109941;28;20050;-81
2022/04/03 04:43:47;;;;;;;4.53;1.23;;;1.90;99.90;;;;;;5091245;28;20047;-81
2022/04/03 04:46:13;;;;;;;2.08;0.98;;;1.30;99.90;;;;;;5109636;28;20043;-81
2022/04/03 04:48:38;;;;;;;2.50;1.30;;;2.70;99.90;;;;;;5109754;27;20032;-81
2022/04/03 04:51:04;;;;;;;2.17;0.82;;;1.20;99.90;;;;;;5108961;28;20563;-81
2022/04/03 04:53:30;;;;;;;3.78;1.02;;;1.20;99.90;;;;;;5108293;28;20483;-80
2022/04/03 04:55:56;;;;;;;3.72;1.00;;;1.70;99.90;;;;;;5106964;28;20123;-80
2022/04/03 04:58:21;;;;;;;1.95;1.00;;;1.10;99.90;;;;;;5108610;28;20133;-80
2022/04/03 05:00:47;;;;;;;3.45;0.82;;;1.10;99.90;;;;;;5057176;28;20067;-80
2022/04/03 05:03:13;;;;;;;2.15;1.38;;;1.10;99.90;;;;;;5108053;28;20071;-80
2022/04/03 05:05:39;;;;;;;3.00;1.10;;;1.10;99.90;;;;;;5108974;28;20035;-80
2022/04/03 05:08:05;;;;;;;6.85;1.10;;;1.00;99.90;;;;;;5108372;28;20055;-80
2022/04/03 05:10:31;;;;;;;1.20;0.85;;;1.00;99.90;;;;;;5109524;28;20399;-80
2022/04/03 05:12:59;;;;;;;2.95;1.33;;;1.30;99.90;;;;;;5107419;28;20124;-80
2022/04/03 05:15:27;;;;;;;5.78;1.58;;;1.10;99.90;;;;;;5109597;28;20046;-80
2022/04/03 05:17:53;;;;;;;1.85;1.00;;;1.10;99.90;;;;;;5106881;28;20040;-80
2022/04/03 05:20:19;;;;;;;2.13;1.08;;;1.10;99.90;;;;;;5107732;28;20050;-80
2022/04/03 05:22:45;;;;;;;5.95;1.25;;;1.20;99.90;;;;;;5107445;28;20040;-80
2022/04/03 05:25:12;;;;;;;3.83;1.10;;;1.20;99.90;;;;;;5108476;28;20046;-80
2022/04/03 05:27:42;;;;;;;1.95;1.00;;;1.30;99.90;;;;;;5107756;28;20056;-79
2022/04/03 05:30:08;;;;;;;3.13;1.20;;;1.30;99.90;;;;;;5106801;28;20398;-80
2022/04/03 05:32:36;;;;;;;2.30;1.13;;;1.40;99.90;;;;;;5108982;28;20532;-80
2022/04/03 05:35:03;;;;;;;2.08;0.82;;;1.40;99.90;;;;;;5107065;28;20052;-80
2022/04/03 05:37:30;;;;;;;1.85;1.20;;;1.50;99.90;;;;;;5108285;28;20054;-79
2022/04/03 05:39:55;;;;;;;2.70;0.90;;;1.50;99.90;;;;;;5108032;27;20370;-79
2022/04/03 05:42:21;;;;;;;6.40;1.08;;;1.50;99.90;;;;;;5089544;28;20516;-80
2022/04/03 05:44:47;;;;;;;3.17;0.75;;;1.50;99.90;;;;;;5107094;28;20502;-80
2022/04/03 05:47:14;;;;;;;8.52;1.10;;;1.50;99.90;;;;;;5088600;28;20048;-80
2022/04/03 05:49:40;;;;;;;2.90;0.98;;;1.60;99.90;;;;;;5108730;28;20075;-79
2022/04/03 05:52:06;;;;;;;2.88;1.00;;;3.00;99.90;;;;;;5105282;28;20472;-80
2022/04/03 05:54:31;;;;;;;8.02;1.00;;;1.60;99.90;;;;;;5106252;28;20051;-80
2022/04/03 05:56:57;;;;;;;3.90;1.00;;;2.70;99.90;;;;;;5106601;28;20040;-80
2022/04/03 05:59:23;;;;;;;6.35;1.10;;;3.20;99.90;;;;;;5105883;28;20043;-79
2022/04/03 06:01:49;;;;;;;1.98;1.20;;;1.80;99.90;;;;;;5106552;28;20083;-80
2022/04/03 06:04:15;;;;;;;2.50;1.40;;;1.90;99.90;;;;;;5107243;28;20044;-80
2022/04/03 06:06:41;;;;;;;2.72;0.88;;;2.10;99.90;;;;;;5107213;28;20048;-81
2022/04/03 06:09:06;;;;;;;5.95;1.40;;;2.20;99.90;;;;;;5108057;28;20471;-81
2022/04/03 06:11:32;;;;;;;2.85;0.95;;;2.30;99.90;;;;;;5056214;28;20794;-82
2022/04/03 06:13:58;;;;;;;2.25;0.93;;;2.30;99.90;;;;;;5089620;28;20031;-83
2022/04/03 06:16:24;;;;;;;3.33;1.08;;;2.40;99.90;;;;;;5106107;28;20043;-82
2022/04/03 06:18:52;;;;;;;1.40;0.90;;;2.40;99.90;;;;;;5089646;28;20051;-83
2022/04/03 06:21:18;;;;;;;4.25;1.42;;;2.50;99.90;;;;;;5105584;28;20179;-82
2022/04/03 06:23:44;;;;;;;3.47;1.08;;;2.60;99.90;;;;;;5089773;28;20126;-84
2022/04/03 06:26:09;;;;;;;4.47;0.95;;;2.60;99.90;;;;;;5105913;28;20046;-83
2022/04/03 06:28:35;;;;;;;7.00;1.02;;;2.60;99.90;;;;;;5106591;28;20040;-83
2022/04/03 06:31:01;;;;;;;2.63;1.00;;;2.60;99.90;;;;;;5089275;28;20044;-82
2022/04/03 06:33:27;;;;;;;6.40;1.13;;;2.60;99.90;;;;;;5105835;28;20036;-81
2022/04/03 06:35:53;;;;;;;6.05;1.00;;;2.50;99.90;;;;;;5072740;28;20047;-83
2022/04/03 06:38:19;;;;;;;3.03;0.50;;;3.30;99.90;;;;;;5107072;28;20044;-81
2022/04/03 06:40:50;;;;;;;1.17;0.68;;;2.50;99.90;;;;;;5107912;28;20051;-83
2022/04/03 06:43:21;;;;;;;3.15;0.93;;;2.50;99.90;;;;;;5107427;28;20039;-83
2022/04/03 06:45:48;;;;;;;4.18;0.95;;;2.60;99.90;;;;;;5106231;28;20047;-83
2022/04/03 06:48:15;;;;;;;1.25;0.60;;;2.60;99.90;;;;;;5106570;28;20062;-84
2022/04/03 06:50:41;;;;;;;1.83;0.80;;;2.70;99.90;;;;;;5107698;28;20043;-81
2022/04/03 06:53:06;;;;;;;4.13;0.60;;;2.80;99.90;;;;;;5106269;28;20112;-81
2022/04/03 06:55:32;;;;;;;5.57;1.00;;;2.90;99.90;;;;;;5105741;28;20046;-86
2022/04/03 06:57:58;;;;;;;5.57;0.80;;;3.10;99.90;;;;;;5108499;28;20446;-84
2022/04/03 07:00:23;;;;;;;1.20;0.70;;;3.20;99.90;;;;;;5106028;28;20043;-81
2022/04/03 07:02:51;;;;;;;4.60;0.70;;;3.40;99.90;;;;;;5106107;28;20079;-82
2022/04/03 07:05:18;;;;;;;0.82;0.60;;;3.60;99.90;;;;;;5105748;28;20499;-82
2022/04/03 07:07:43;;;;;;;4.25;1.00;;;3.70;99.90;;;;;;5088416;28;20508;-83
2022/04/03 07:10:10;;;;;;;5.22;0.60;;;3.80;99.90;;;;;;5089163;28;20050;-82
2022/04/03 07:12:36;;;;;;;6.13;0.43;;;4.00;99.90;;;;;;5105005;28;20487;-81
2022/04/03 07:15:03;;;;;;;3.17;0.50;;;4.10;99.90;;;;;;5089498;28;20055;-83
2022/04/03 07:17:29;;;;;;;3.33;0.60;;;4.20;99.90;;;;;;5105909;28;20399;-83
2022/04/03 07:19:55;;;;;;;2.90;0.40;;;4.40;99.90;;;;;;5106175;28;20160;-83
2022/04/03 07:22:20;;;;;;;2.95;0.80;;;4.60;99.90;;;;;;5106143;28;20086;-83
2022/04/03 07:24:46;;;;;;;2.55;0.50;;;4.70;99.90;;;;;;5105189;28;20367;-82
2022/04/03 07:27:12;;;;;;;6.90;0.80;;;6.00;99.90;;;;;;5105658;28;20112;-82
2022/04/03 07:29:38;;;;;;;1.80;0.40;;;4.90;99.90;;;;;;5105107;28;20047;-82
2022/04/03 07:32:04;;;;;;;0.40;0.30;;;5.00;99.90;;;;;;5109742;28;20055;-82
2022/04/03 07:34:30;;;;;;;0.57;0.30;;;5.10;99.90;;;;;;5109753;28;20398;-82
2022/04/03 07:36:56;;;;;;;1.38;0.30;;;6.20;99.90;;;;;;5075717;28;20039;-82
2022/04/03 07:39:23;;;;;;;0.50;0.20;;;5.10;99.90;;;;;;5109231;28;20097;-81
2022/04/03 07:41:49;;;;;;;1.23;0.28;;;6.50;99.90;;;;;;5058735;28;20090;-82
2022/04/03 07:44:15;;;;;;;2.88;0.40;;;4.70;99.90;;;;;;5111158;28;20079;-81
2022/04/03 07:46:41;;;;;;;3.30;0.30;;;5.70;99.90;;;;;;5110220;28;20082;-81
2022/04/03 07:49:06;;;;;;;0.10;0.10;;;5.50;99.90;;;;;;5111015;28;20043;-82
2022/04/03 07:51:32;;;;;;;2.60;0.50;;;5.60;99.90;;;;;;5113206;27;20047;-82
2022/04/03 07:53:58;;;;;;;3.40;0.38;;;5.80;99.90;;;;;;5114390;27;20054;-81
2022/04/03 07:56:24;;;;;;;2.05;0.40;;;5.90;99.90;;;;;;5116045;27;20035;-81
2022/04/03 07:58:50;;;;;;;3.28;0.40;;;6.40;99.90;;;;;;5134132;27;20168;-80
2022/04/03 08:01:17;;;;;;;0.93;0.40;;;6.20;99.90;;;;;;5134315;27;20031;-81
2022/04/03 08:03:43;;;;;;;5.28;0.70;;;6.30;99.90;;;;;;5115327;27;20055;-81
2022/04/03 08:06:09;;;;;;;2.85;0.43;;;7.20;99.90;;;;;;5098779;27;20060;-80
2022/04/03 08:08:35;;;;;;;4.03;0.30;;;6.70;99.90;;;;;;5098376;27;20533;-80
2022/04/03 08:11:01;;;;;;;4.25;0.68;;;6.80;99.90;;;;;;5114570;27;20043;-81
2022/04/03 08:13:27;;;;;;;1.98;0.43;;;6.90;99.90;;;;;;5113945;27;20096;-80
2022/04/03 08:15:52;;;;;;;7.13;0.60;;;7.00;99.90;;;;;;5080039;27;20050;-80
2022/04/03 08:18:21;;;;;;;0.88;0.40;;;7.10;99.90;;;;;;5080966;27;20080;-80
2022/04/03 08:20:47;;;;;;;2.10;0.50;;;7.90;99.90;;;;;;5130554;27;20043;-79
2022/04/03 08:23:13;;;;;;;3.70;0.50;;;7.40;99.90;;;;;;5113388;27;20043;-79
2022/04/03 08:25:39;;;;;;;8.00;0.50;;;8.00;99.90;;;;;;5130953;27;20043;-79
2022/04/03 08:28:07;;;;;;;1.48;0.45;;;7.60;99.90;;;;;;5095704;27;20047;-80
2022/04/03 08:30:37;;;;;;;4.97;0.47;;;7.60;99.90;;;;;;5131429;27;20035;-79
2022/04/03 08:33:05;;;;;;;4.75;0.35;;;7.60;99.90;;;;;;5112563;27;20853;-80
2022/04/03 08:35:32;;;;;;;1.98;0.50;;;7.50;99.90;;;;;;5111936;27;20081;-79
2022/04/03 08:37:59;;;;;;;3.88;0.40;;;7.40;99.90;;;;;;5110427;27;20048;-80
2022/04/03 08:40:26;;;;;;;7.97;0.68;;;8.60;99.90;;;;;;5111678;27;20049;-79
2022/04/03 08:42:54;;;;;;;6.85;0.85;;;7.80;99.90;;;;;;5129955;27;20394;-83
2022/04/03 08:45:21;;;;;;;6.05;0.30;;;9.00;99.90;;;;;;5132275;27;20398;-84
2022/04/03 08:47:51;;;;;;;4.97;0.40;;;7.70;99.90;;;;;;5113525;27;20045;-82
2022/04/03 08:50:19;;;;;;;2.28;0.40;;;7.80;99.90;;;;;;5131765;27;20070;-79
2022/04/03 08:52:51;;;;;;;4.32;0.32;;;7.90;99.90;;;;;;5131193;27;20066;-80
2022/04/03 08:55:19;;;;;;;2.40;0.40;;;8.00;99.90;;;;;;5131114;27;20051;-80
2022/04/03 08:57:44;;;;;;;2.67;0.30;;;8.30;99.90;;;;;;5131843;27;20485;-80
2022/04/03 09:00:13;;;;;;;3.10;0.30;;;8.60;99.90;;;;;;5131179;27;20035;-81
2022/04/03 09:02:39;;;;;;;1.35;0.30;;;8.70;99.90;;;;;;5130919;27;20402;-80
2022/04/03 09:05:05;;;;;;;3.60;0.40;;;9.90;99.90;;;;;;5131200;27;20360;-80
2022/04/03 09:07:31;;;;;;;2.90;0.47;;;8.50;99.90;;;;;;5130516;27;20135;-79
2022/04/03 09:09:59;;;;;;;6.35;0.40;;;8.20;99.90;;;;;;5131087;27;20046;-79
2022/04/03 09:12:26;;;;;;;2.80;0.40;;;8.00;99.90;;;;;;5130459;27;20057;-80
2022/04/03 09:14:54;;;;;;;1.48;0.30;;;8.10;99.90;;;;;;5112793;27;20183;-80
2022/04/03 09:17:38;;;;;;;5.43;0.38;;;7.60;99.90;;;;;;5112401;27;20050;-80
2022/04/03 09:20:09;;;;;;;1.55;0.20;;;7.70;99.90;;;;;;5112067;27;20429;-78
2022/04/03 09:22:37;;;;;;;0.55;0.20;;;8.00;99.90;;;;;;5131654;27;20429;-79
2022/04/03 09:25:05;;;;;;;1.33;0.32;;;8.40;99.90;;;;;;5112019;27;20046;-80
2022/04/03 09:27:35;;;;;;;1.88;0.45;;;8.80;99.90;;;;;;5111264;27;20035;-80
2022/04/03 09:30:10;;;;;;;1.95;0.20;;;9.20;99.90;;;;;;5112263;27;20047;-80
2022/04/03 09:32:51;;;;;;;1.63;0.30;;;9.20;99.90;;;;;;5112677;27;20043;-80
2022/04/03 09:35:19;;;;;;;3.47;0.30;;;9.50;99.90;;;;;;5131492;27;20043;-80
2022/04/03 09:38:11;;;;;;;0.60;0.22;;;9.80;99.90;;;;;;5130211;27;20043;-80
2022/04/03 09:40:43;;;;;;;0.50;0.20;;;9.90;99.90;;;;;;5131332;27;20506;-81
2022/04/03 09:43:23;;;;;;;0.70;0.20;;;9.70;99.90;;;;;;5114178;27;20043;-81
2022/04/03 09:45:51;;;;;;;1.60;0.25;;;9.80;99.90;;;;;;5114011;27;20050;-81
2022/04/03 09:48:35;;;;;;;0.20;0.10;;;10.00;99.90;;;;;;5096614;27;20031;-80
2022/04/03 09:51:02;;;;;;;1.27;0.25;;;10.10;93.30;;;;;;5098065;27;20081;-80
2022/04/03 09:53:49;;;;;;;3.03;0.20;;;10.20;98.40;;;;;;5113094;27;20096;-80
2022/04/03 09:56:31;;;;;;;0.30;0.10;;;10.40;93.80;;;;;;5130634;27;20051;-80
2022/04/03 09:59:03;;;;;;;1.00;0.10;;;10.80;93.10;;;;;;5110627;27;20485;-80
2022/04/03 10:01:40;;;;;;;2.63;0.20;;;11.00;93.40;;;;;;5130217;27;20071;-80
2022/04/03 10:04:08;;;;;;;0.47;0.17;;;11.30;90.00;;;;;;5093579;27;20054;-79
2022/04/03 10:06:35;;;;;;;4.40;0.30;;;11.50;92.10;;;;;;5129411;27;20051;-79
2022/04/03 10:09:02;;;;;;;2.05;0.25;;;11.30;92.00;;;;;;5129632;27;20123;-80
2022/04/03 10:11:31;;;;;;;1.58;0.38;;;10.80;91.90;;;;;;5129135;27;20050;-79
2022/04/03 10:13:57;;;;;;;2.90;0.38;;;9.90;94.50;;;;;;5094245;27;20051;-79
2022/04/03 10:16:23;;;;;;;5.82;0.32;;;10.40;95.80;;;;;;5128761;27;20085;-78
2022/04/03 10:18:50;;;;;;;1.40;0.20;;;10.40;95.60;;;;;;5129405;27;20070;-79
2022/04/03 10:21:16;;;;;;;3.50;0.60;;;10.00;95.80;;;;;;5129322;27;20043;-80
2022/04/03 10:23:43;;;;;;;2.65;0.40;;;9.70;96.90;;;;;;5110856;27;20046;-79
2022/04/03 10:26:11;;;;;;;1.70;0.35;;;10.60;98.30;;;;;;5110322;27;20047;-80
2022/04/03 10:28:40;;;;;;;2.17;0.22;;;9.90;98.00;;;;;;5110168;27;20051;-79
2022/04/03 10:31:09;;;;;;;3.63;0.20;;;10.20;97.70;;;;;;5129383;27;20040;-79
2022/04/03 10:33:39;;;;;;;2.20;0.20;;;10.50;95.40;;;;;;5092769;27;20082;-78
2022/04/03 10:36:08;;;;;;;5.15;0.20;;;11.80;92.60;;;;;;5111380;27;20047;-80
2022/04/03 10:38:44;;;;;;;0.80;0.30;;;11.10;93.30;;;;;;5109784;27;20047;-79
2022/04/03 10:41:27;;;;;;;4.72;0.30;;;11.30;89.50;;;;;;5128459;27;20047;-80
2022/04/03 10:44:15;;;;;;;1.80;0.30;;;10.60;82.60;;;;;;5128829;27;20490;-80
2022/04/03 10:47:03;;;;;;;2.20;0.30;;;11.50;80.40;;;;;;5109966;28;20065;-80
2022/04/03 10:49:40;;;;;;;4.13;0.28;;;11.20;84.00;;;;;;5109930;27;20043;-80
2022/04/03 10:52:22;;;;;;;1.15;0.40;;;10.80;91.20;;;;;;5109318;28;20111;-80
2022/04/03 10:54:54;;;;;;;3.20;0.20;;;10.30;92.40;;;;;;5109309;28;20403;-80
2022/04/03 10:57:47;;;;;;;1.45;0.10;;;9.80;95.40;;;;;;5128086;28;20463;-80
2022/04/03 11:00:12;;;;;;;1.42;0.20;;;9.40;96.50;;;;;;5110914;28;20078;-80
2022/04/03 11:02:43;;;;;;;5.38;0.60;;;9.10;98.30;;;;;;5109011;28;20049;-80
2022/04/03 11:05:29;;;;;;;0.20;0.10;;;8.80;98.50;;;;;;5111754;27;20435;-80
2022/04/03 11:08:02;;;;;;;0.38;0.10;;;9.30;98.10;;;;;;5095488;27;20059;-80
2022/04/03 11:11:06;;;;;;;0.98;0.10;;;8.60;99.30;;;;;;5096897;27;20071;-81
2022/04/03 11:13:35;;;;;;;7.40;0.20;;;8.70;98.50;;;;;;5113919;27;20071;-81
2022/04/03 11:16:06;;;;;;;0.98;0.30;;;8.70;98.70;;;;;;5095409;27;20047;-81
2022/04/03 11:18:43;;;;;;;1.33;0.30;;;8.90;98.90;;;;;;5079589;27;20080;-81
2022/04/03 11:21:22;;;;;;;0.80;0.20;;;9.10;98.30;;;;;;5096017;27;20039;-81
2022/04/03 11:24:09;;;;;;;0.70;0.22;;;9.30;97.80;;;;;;5095952;27;20584;-81
2022/04/03 11:26:35;;;;;;;1.42;0.28;;;9.40;94.50;;;;;;5096774;27;20047;-81
2022/04/03 11:29:02;;;;;;;1.08;0.47;;;9.30;94.90;;;;;;5096050;27;20112;-81
2022/04/03 11:31:28;;;;;;;1.60;0.30;;;9.40;95.10;;;;;;5113914;27;20081;-81
2022/04/03 11:33:54;;;;;;;1.95;0.20;;;9.30;95.60;;;;;;5096041;27;20514;-81
2022/04/03 11:36:28;;;;;;;1.08;0.22;;;9.40;95.50;;;;;;5078958;27;20406;-81
2022/04/03 11:38:55;;;;;;;3.00;0.30;;;9.60;95.10;;;;;;5112950;27;20486;-80
2022/04/03 11:41:35;;;;;;;5.10;0.40;;;9.90;95.50;;;;;;5095372;27;20047;-80
2022/04/03 11:44:05;;;;;;;1.92;0.10;;;10.30;94.60;;;;;;5131896;27;20074;-80
2022/04/03 11:46:50;;;;;;;0.90;0.20;;;10.40;93.90;;;;;;5095452;27;20039;-79
2022/04/03 11:49:30;;;;;;;1.25;0.20;;;11.10;93.10;;;;;;5098092;27;20043;-80
2022/04/03 11:52:09;;;;;;;2.53;0.17;;;10.90;92.20;;;;;;5112526;27;20451;-83
2022/04/03 11:54:35;;;;;;;3.50;0.25;;;11.20;84.80;;;;;;5112263;27;20457;-81
2022/04/03 11:57:07;;;;;;;2.58;0.20;;;11.10;85.30;;;;;;5112681;27;20517;-80
2022/04/03 11:59:35;;;;;;;2.08;0.55;;;10.90;85.00;;;;;;5096520;27;20043;-81
2022/04/03 12:02:09;;;;;;;1.02;0.20;;;10.50;86.60;;;;;;5112518;27;20031;-80
2022/04/03 12:04:42;;;;;;;1.10;0.32;;;10.40;86.60;;;;;;5131163;27;20043;-81
2022/04/03 12:07:13;;;;;;;3.60;0.43;;;10.70;88.60;;;;;;5111808;27;20490;-80
2022/04/03 12:09:41;;;;;;;2.25;0.38;;;11.10;90.30;;;;;;5096585;27;20486;-80
2022/04/03 12:12:08;;;;;;;4.28;0.30;;;11.00;86.90;;;;;;5094922;27;20043;-80
2022/04/03 12:14:36;;;;;;;0.80;0.20;;;10.90;83.40;;;;;;5112709;27;20308;-81
2022/04/03 12:17:04;;;;;;;6.70;0.30;;;10.60;82.20;;;;;;5111515;27;20051;-80
2022/04/03 12:19:38;;;;;;;1.98;0.40;;;10.30;84.10;;;;;;5111921;27;20664;-80
2022/04/03 12:22:06;;;;;;;1.17;0.22;;;10.00;83.50;;;;;;5112759;27;20047;-80
2022/04/03 12:24:33;;;;;;;0.77;0.20;;;9.80;86.80;;;;;;5111630;27;20050;-80
2022/04/03 12:27:06;;;;;;;1.58;0.25;;;9.70;87.60;;;;;;5130986;27;20470;-80
2022/04/03 12:29:35;;;;;;;1.45;0.20;;;9.50;87.90;;;;;;5130460;27;20555;-80
2022/04/03 12:32:04;;;;;;;2.97;0.35;;;9.40;89.00;;;;;;5130625;27;20036;-79
2022/04/03 12:34:39;;;;;;;1.83;0.40;;;9.30;90.10;;;;;;5130532;27;20047;-80
2022/04/03 12:37:06;;;;;;;4.18;0.40;;;9.20;90.90;;;;;;5130292;27;20433;-79
2022/04/03 12:39:40;;;;;;;2.33;0.40;;;9.20;91.90;;;;;;5077953;27;20039;-80
2022/04/03 12:42:26;;;;;;;1.02;0.40;;;9.10;92.20;;;;;;5130703;27;20104;-80
2022/04/03 12:45:08;;;;;;;0.75;0.20;;;9.00;91.80;;;;;;5112493;27;20031;-80
2022/04/03 12:47:46;;;;;;;5.18;0.60;;;9.00;91.50;;;;;;5111984;27;20609;-79
2022/04/03 12:50:14;;;;;;;2.28;0.20;;;8.80;90.50;;;;;;5130046;27;20098;-80
2022/04/03 12:52:48;;;;;;;1.88;0.30;;;8.80;91.30;;;;;;5111700;27;20131;-80
2022/04/03 12:55:23;;;;;;;0.90;0.28;;;8.70;89.40;;;;;;5130086;27;20054;-79
2022/04/03 13:00:46;;;;;;;1.35;0.20;;;8.70;88.90;;;;;;5130451;27;20111;-79
2022/04/03 13:03:32;;;;;;;2.65;0.28;;;9.10;87.90;;;;;;5129500;27;20043;-80